sensor_id;sensor_type;location;lat;lon;timestamp;temperature;humidity
3308;DHT22;1666;48.898;9.182;2023-02-23T00:01:20;8.90;4.10
3308;DHT22;1666;48.898;9.182;2023-02-23T00:03:53;8.90;4.70
3308;DHT22;1666;48.898;9.182;2023-02-23T00:06:28;8.90;4.10
3308;DHT22;1666;48.898;9.182;2023-02-23T00:08:58;9.00;4.20
3308;DHT22;1666;48.898;9.182;2023-02-23T00:11:32;9.00;4.10
3308;DHT22;1666;48.898;9.182;2023-02-23T00:14:02;9.00;4.20
3308;DHT22;1666;48.898;9.182;2023-02-23T00:16:34;9.00;4.10
3308;DHT22;1666;48.898;9.182;2023-02-23T00:19:04;9.00;4.30
3308;DHT22;1666;48.898;9.182;2023-02-23T00:21:36;9.00;4.10
3308;DHT22;1666;48.898;9.182;2023-02-23T00:24:08;9.10;4.20
3308;DHT22;1666;48.898;9.182;2023-02-23T00:26:39;9.10;4.20
3308;DHT22;1666;48.898;9.182;2023-02-23T00:29:13;9.10;4.20
3308;DHT22;1666;48.898;9.182;2023-02-23T00:31:44;9.10;4.10
3308;DHT22;1666;48.898;9.182;2023-02-23T00:34:16;9.10;4.10
3308;DHT22;1666;48.898;9.182;2023-02-23T00:36:53;9.10;4.00
3308;DHT22;1666;48.898;9.182;2023-02-23T00:39:23;9.10;4.50
3308;DHT22;1666;48.898;9.182;2023-02-23T00:41:55;9.20;4.60
3308;DHT22;1666;48.898;9.182;2023-02-23T00:44:29;9.10;4.20
3308;DHT22;1666;48.898;9.182;2023-02-23T00:47:00;9.00;4.90
3308;DHT22;1666;48.898;9.182;2023-02-23T00:49:31;9.10;5.40
3308;DHT22;1666;48.898;9.182;2023-02-23T00:52:03;9.10;7.10
3308;DHT22;1666;48.898;9.182;2023-02-23T00:54:34;9.00;8.50
3308;DHT22;1666;48.898;9.182;2023-02-23T00:57:03;9.00;10.20
3308;DHT22;1666;48.898;9.182;2023-02-23T00:59:33;8.90;10.60
3308;DHT22;1666;48.898;9.182;2023-02-23T01:02:03;8.90;12.40
3308;DHT22;1666;48.898;9.182;2023-02-23T01:04:33;8.80;15.00
3308;DHT22;1666;48.898;9.182;2023-02-23T01:07:05;8.80;16.00
3308;DHT22;1666;48.898;9.182;2023-02-23T01:09:38;8.70;17.90
3308;DHT22;1666;48.898;9.182;2023-02-23T01:12:09;8.70;18.60
3308;DHT22;1666;48.898;9.182;2023-02-23T01:14:39;8.60;19.30
3308;DHT22;1666;48.898;9.182;2023-02-23T01:17:09;8.60;20.30
3308;DHT22;1666;48.898;9.182;2023-02-23T01:19:38;8.60;21.30
3308;DHT22;1666;48.898;9.182;2023-02-23T01:22:11;8.50;21.40
3308;DHT22;1666;48.898;9.182;2023-02-23T01:24:41;8.50;21.80
3308;DHT22;1666;48.898;9.182;2023-02-23T01:27:10;8.50;21.80
3308;DHT22;1666;48.898;9.182;2023-02-23T01:29:40;8.50;21.80
3308;DHT22;1666;48.898;9.182;2023-02-23T01:32:10;8.50;22.10
3308;DHT22;1666;48.898;9.182;2023-02-23T01:34:40;8.50;22.30
3308;DHT22;1666;48.898;9.182;2023-02-23T01:37:12;8.50;23.50
3308;DHT22;1666;48.898;9.182;2023-02-23T01:39:42;8.50;22.90
3308;DHT22;1666;48.898;9.182;2023-02-23T01:42:12;8.40;23.10
3308;DHT22;1666;48.898;9.182;2023-02-23T01:45:18;8.50;23.70
3308;DHT22;1666;48.898;9.182;2023-02-23T01:47:51;8.40;23.20
3308;DHT22;1666;48.898;9.182;2023-02-23T01:50:21;8.40;24.10
3308;DHT22;1666;48.898;9.182;2023-02-23T01:52:55;8.40;24.80
3308;DHT22;1666;48.898;9.182;2023-02-23T01:55:26;8.40;25.20
3308;DHT22;1666;48.898;9.182;2023-02-23T01:58:02;8.40;25.20
3308;DHT22;1666;48.898;9.182;2023-02-23T02:00:33;8.40;25.60
3308;DHT22;1666;48.898;9.182;2023-02-23T02:03:08;8.50;25.30
3308;DHT22;1666;48.898;9.182;2023-02-23T02:05:40;8.50;25.20
3308;DHT22;1666;48.898;9.182;2023-02-23T02:08:15;8.50;25.30
3308;DHT22;1666;48.898;9.182;2023-02-23T02:10:45;8.50;25.30
3308;DHT22;1666;48.898;9.182;2023-02-23T02:13:24;8.40;25.20
3308;DHT22;1666;48.898;9.182;2023-02-23T02:16:19;8.40;25.10
3308;DHT22;1666;48.898;9.182;2023-02-23T02:22:31;8.40;25.90
3308;DHT22;1666;48.898;9.182;2023-02-23T02:28:43;8.30;26.20
3308;DHT22;1666;48.898;9.182;2023-02-23T02:37:34;8.30;26.30
3308;DHT22;1666;48.898;9.182;2023-02-23T02:40:10;8.30;26.90
3308;DHT22;1666;48.898;9.182;2023-02-23T02:43:00;8.30;27.60
3308;DHT22;1666;48.898;9.182;2023-02-23T02:45:44;8.40;27.90
3308;DHT22;1666;48.898;9.182;2023-02-23T02:48:27;8.40;26.80
3308;DHT22;1666;48.898;9.182;2023-02-23T02:51:04;8.50;26.50
3308;DHT22;1666;48.898;9.182;2023-02-23T02:53:43;8.40;25.20
3308;DHT22;1666;48.898;9.182;2023-02-23T02:56:15;8.40;25.60
3308;DHT22;1666;48.898;9.182;2023-02-23T02:58:46;8.40;25.80
3308;DHT22;1666;48.898;9.182;2023-02-23T03:01:17;8.40;25.90
3308;DHT22;1666;48.898;9.182;2023-02-23T03:04:03;8.40;25.90
3308;DHT22;1666;48.898;9.182;2023-02-23T03:07:03;8.40;26.30
3308;DHT22;1666;48.898;9.182;2023-02-23T03:09:53;8.40;26.00
3308;DHT22;1666;48.898;9.182;2023-02-23T03:12:40;8.40;26.40
3308;DHT22;1666;48.898;9.182;2023-02-23T03:15:37;8.40;26.10
3308;DHT22;1666;48.898;9.182;2023-02-23T03:18:36;8.40;26.50
3308;DHT22;1666;48.898;9.182;2023-02-23T03:21:26;8.30;26.30
3308;DHT22;1666;48.898;9.182;2023-02-23T03:24:14;8.30;26.40
3308;DHT22;1666;48.898;9.182;2023-02-23T03:27:05;8.30;26.70
3308;DHT22;1666;48.898;9.182;2023-02-23T03:29:53;8.30;26.80
3308;DHT22;1666;48.898;9.182;2023-02-23T03:32:43;8.30;27.40
3308;DHT22;1666;48.898;9.182;2023-02-23T03:35:31;8.30;27.60
3308;DHT22;1666;48.898;9.182;2023-02-23T03:38:18;8.30;27.70
3308;DHT22;1666;48.898;9.182;2023-02-23T03:41:03;8.20;28.10
3308;DHT22;1666;48.898;9.182;2023-02-23T03:43:49;8.20;27.40
3308;DHT22;1666;48.898;9.182;2023-02-23T03:46:34;8.20;26.90
3308;DHT22;1666;48.898;9.182;2023-02-23T03:49:18;8.10;27.10
3308;DHT22;1666;48.898;9.182;2023-02-23T03:52:05;8.20;27.40
3308;DHT22;1666;48.898;9.182;2023-02-23T03:54:53;8.20;26.60
3308;DHT22;1666;48.898;9.182;2023-02-23T03:57:37;8.20;26.50
3308;DHT22;1666;48.898;9.182;2023-02-23T04:00:28;8.20;26.60
3308;DHT22;1666;48.898;9.182;2023-02-23T04:03:14;8.20;26.30
3308;DHT22;1666;48.898;9.182;2023-02-23T04:05:57;8.30;26.70
3308;DHT22;1666;48.898;9.182;2023-02-23T04:08:40;8.30;25.90
3308;DHT22;1666;48.898;9.182;2023-02-23T04:11:27;8.30;25.60
3308;DHT22;1666;48.898;9.182;2023-02-23T04:14:16;8.30;25.30
3308;DHT22;1666;48.898;9.182;2023-02-23T04:16:48;8.30;25.10
3308;DHT22;1666;48.898;9.182;2023-02-23T04:19:15;8.30;25.40
3308;DHT22;1666;48.898;9.182;2023-02-23T04:21:45;8.30;25.40
3308;DHT22;1666;48.898;9.182;2023-02-23T04:24:14;8.30;25.60
3308;DHT22;1666;48.898;9.182;2023-02-23T04:26:44;8.30;25.50
3308;DHT22;1666;48.898;9.182;2023-02-23T04:29:14;8.30;26.00
3308;DHT22;1666;48.898;9.182;2023-02-23T04:31:46;8.30;26.10
3308;DHT22;1666;48.898;9.182;2023-02-23T04:34:18;8.30;26.30
3308;DHT22;1666;48.898;9.182;2023-02-23T04:36:47;8.30;26.10
3308;DHT22;1666;48.898;9.182;2023-02-23T04:39:18;8.30;26.30
3308;DHT22;1666;48.898;9.182;2023-02-23T04:41:47;8.40;26.40
3308;DHT22;1666;48.898;9.182;2023-02-23T04:44:17;8.40;26.50
3308;DHT22;1666;48.898;9.182;2023-02-23T04:46:49;8.40;26.80
3308;DHT22;1666;48.898;9.182;2023-02-23T04:49:19;8.40;27.20
3308;DHT22;1666;48.898;9.182;2023-02-23T04:51:49;8.40;27.20
3308;DHT22;1666;48.898;9.182;2023-02-23T04:54:19;8.40;27.50
3308;DHT22;1666;48.898;9.182;2023-02-23T04:56:49;8.50;28.20
3308;DHT22;1666;48.898;9.182;2023-02-23T04:59:18;8.50;28.60
3308;DHT22;1666;48.898;9.182;2023-02-23T05:01:51;8.50;28.50
3308;DHT22;1666;48.898;9.182;2023-02-23T05:04:21;8.50;28.70
3308;DHT22;1666;48.898;9.182;2023-02-23T05:06:51;8.50;28.60
3308;DHT22;1666;48.898;9.182;2023-02-23T05:09:21;8.50;28.70
3308;DHT22;1666;48.898;9.182;2023-02-23T05:11:50;8.50;28.90
3308;DHT22;1666;48.898;9.182;2023-02-23T05:14:20;8.50;28.70
3308;DHT22;1666;48.898;9.182;2023-02-23T05:16:53;8.50;29.10
3308;DHT22;1666;48.898;9.182;2023-02-23T05:19:23;8.50;29.50
3308;DHT22;1666;48.898;9.182;2023-02-23T05:21:53;8.40;29.70
3308;DHT22;1666;48.898;9.182;2023-02-23T05:24:22;8.30;30.50
3308;DHT22;1666;48.898;9.182;2023-02-23T05:26:52;8.40;31.60
3308;DHT22;1666;48.898;9.182;2023-02-23T05:29:22;8.30;31.10
3308;DHT22;1666;48.898;9.182;2023-02-23T05:31:54;8.30;32.10
3308;DHT22;1666;48.898;9.182;2023-02-23T05:34:25;8.30;32.30
3308;DHT22;1666;48.898;9.182;2023-02-23T05:36:54;8.40;32.40
3308;DHT22;1666;48.898;9.182;2023-02-23T05:39:24;8.40;32.40
3308;DHT22;1666;48.898;9.182;2023-02-23T05:41:54;8.40;32.00
3308;DHT22;1666;48.898;9.182;2023-02-23T05:44:24;8.40;31.80
3308;DHT22;1666;48.898;9.182;2023-02-23T05:46:56;8.50;31.80
3308;DHT22;1666;48.898;9.182;2023-02-23T05:49:27;8.40;31.40
3308;DHT22;1666;48.898;9.182;2023-02-23T05:51:57;8.40;32.30
3308;DHT22;1666;48.898;9.182;2023-02-23T05:54:27;8.40;31.60
3308;DHT22;1666;48.898;9.182;2023-02-23T05:56:57;8.30;31.30
3308;DHT22;1666;48.898;9.182;2023-02-23T05:59:28;8.30;32.30
3308;DHT22;1666;48.898;9.182;2023-02-23T06:02:00;8.30;32.30
3308;DHT22;1666;48.898;9.182;2023-02-23T06:04:31;8.40;32.40
3308;DHT22;1666;48.898;9.182;2023-02-23T06:07:00;8.30;32.20
3308;DHT22;1666;48.898;9.182;2023-02-23T06:09:30;8.30;32.40
3308;DHT22;1666;48.898;9.182;2023-02-23T06:12:00;8.30;32.30
3308;DHT22;1666;48.898;9.182;2023-02-23T06:14:30;8.30;32.80
3308;DHT22;1666;48.898;9.182;2023-02-23T06:17:03;8.20;32.60
3308;DHT22;1666;48.898;9.182;2023-02-23T06:19:34;8.20;34.00
3308;DHT22;1666;48.898;9.182;2023-02-23T06:22:03;8.20;34.60
3308;DHT22;1666;48.898;9.182;2023-02-23T06:24:33;8.20;35.20
3308;DHT22;1666;48.898;9.182;2023-02-23T06:27:03;8.20;36.30
3308;DHT22;1666;48.898;9.182;2023-02-23T06:29:33;8.30;36.50
3308;DHT22;1666;48.898;9.182;2023-02-23T06:32:05;8.30;36.20
3308;DHT22;1666;48.898;9.182;2023-02-23T06:34:35;8.30;36.40
3308;DHT22;1666;48.898;9.182;2023-02-23T06:37:06;8.30;36.70
3308;DHT22;1666;48.898;9.182;2023-02-23T06:39:36;8.30;36.90
3308;DHT22;1666;48.898;9.182;2023-02-23T06:42:06;8.30;37.70
3308;DHT22;1666;48.898;9.182;2023-02-23T06:44:35;8.30;38.00
3308;DHT22;1666;48.898;9.182;2023-02-23T06:47:08;8.30;38.10
3308;DHT22;1666;48.898;9.182;2023-02-23T06:49:38;8.30;38.50
3308;DHT22;1666;48.898;9.182;2023-02-23T06:52:08;8.30;39.00
3308;DHT22;1666;48.898;9.182;2023-02-23T06:54:39;8.40;39.30
3308;DHT22;1666;48.898;9.182;2023-02-23T06:57:09;8.40;39.70
3308;DHT22;1666;48.898;9.182;2023-02-23T06:59:39;8.40;39.80
3308;DHT22;1666;48.898;9.182;2023-02-23T07:02:12;8.40;40.00
3308;DHT22;1666;48.898;9.182;2023-02-23T07:04:42;8.40;39.60
3308;DHT22;1666;48.898;9.182;2023-02-23T07:07:13;8.40;40.50
3308;DHT22;1666;48.898;9.182;2023-02-23T07:09:43;8.60;40.70
3308;DHT22;1666;48.898;9.182;2023-02-23T07:12:13;8.50;39.50
3308;DHT22;1666;48.898;9.182;2023-02-23T07:14:42;8.50;39.40
3308;DHT22;1666;48.898;9.182;2023-02-23T07:17:15;8.60;39.30
3308;DHT22;1666;48.898;9.182;2023-02-23T07:19:45;8.60;39.10
3308;DHT22;1666;48.898;9.182;2023-02-23T07:22:14;8.60;38.40
3308;DHT22;1666;48.898;9.182;2023-02-23T07:24:44;8.60;38.40
3308;DHT22;1666;48.898;9.182;2023-02-23T07:27:14;8.70;38.00
3308;DHT22;1666;48.898;9.182;2023-02-23T07:29:44;8.70;37.70
3308;DHT22;1666;48.898;9.182;2023-02-23T07:32:17;8.70;37.00
3308;DHT22;1666;48.898;9.182;2023-02-23T07:34:47;8.80;37.20
3308;DHT22;1666;48.898;9.182;2023-02-23T07:37:19;8.80;36.20
3308;DHT22;1666;48.898;9.182;2023-02-23T07:39:49;8.80;36.10
3308;DHT22;1666;48.898;9.182;2023-02-23T07:42:19;8.80;35.40
3308;DHT22;1666;48.898;9.182;2023-02-23T07:44:49;8.90;35.60
3308;DHT22;1666;48.898;9.182;2023-02-23T07:47:21;9.00;34.50
3308;DHT22;1666;48.898;9.182;2023-02-23T07:49:57;9.00;34.90
3308;DHT22;1666;48.898;9.182;2023-02-23T07:52:29;9.10;33.50
3308;DHT22;1666;48.898;9.182;2023-02-23T07:54:59;9.00;32.90
3308;DHT22;1666;48.898;9.182;2023-02-23T07:57:28;9.10;33.90
3308;DHT22;1666;48.898;9.182;2023-02-23T07:59:58;9.20;33.10
3308;DHT22;1666;48.898;9.182;2023-02-23T08:02:31;9.30;33.10
3308;DHT22;1666;48.898;9.182;2023-02-23T08:05:01;9.40;31.60
3308;DHT22;1666;48.898;9.182;2023-02-23T08:07:31;9.40;31.80
3308;DHT22;1666;48.898;9.182;2023-02-23T08:10:01;9.50;30.80
3308;DHT22;1666;48.898;9.182;2023-02-23T08:12:31;9.60;30.10
3308;DHT22;1666;48.898;9.182;2023-02-23T08:15:03;9.60;29.40
3308;DHT22;1666;48.898;9.182;2023-02-23T08:17:37;9.60;28.30
3308;DHT22;1666;48.898;9.182;2023-02-23T08:20:08;9.70;28.20
3308;DHT22;1666;48.898;9.182;2023-02-23T08:22:38;9.60;27.70
3308;DHT22;1666;48.898;9.182;2023-02-23T08:25:16;9.60;28.10
3308;DHT22;1666;48.898;9.182;2023-02-23T08:27:46;9.50;28.70
3308;DHT22;1666;48.898;9.182;2023-02-23T08:30:19;9.50;29.20
3308;DHT22;1666;48.898;9.182;2023-02-23T08:32:51;9.60;29.00
3308;DHT22;1666;48.898;9.182;2023-02-23T08:35:21;9.50;29.20
3308;DHT22;1666;48.898;9.182;2023-02-23T08:37:51;9.50;29.30
3308;DHT22;1666;48.898;9.182;2023-02-23T08:40:22;9.70;29.50
3308;DHT22;1666;48.898;9.182;2023-02-23T08:42:52;9.80;28.60
3308;DHT22;1666;48.898;9.182;2023-02-23T08:45:22;9.90;28.70
3308;DHT22;1666;48.898;9.182;2023-02-23T08:47:57;9.90;28.40
3308;DHT22;1666;48.898;9.182;2023-02-23T08:50:27;10.00;27.30
3308;DHT22;1666;48.898;9.182;2023-02-23T08:52:57;10.00;26.60
3308;DHT22;1666;48.898;9.182;2023-02-23T08:55:27;10.10;26.10
3308;DHT22;1666;48.898;9.182;2023-02-23T08:57:57;10.10;25.00
3308;DHT22;1666;48.898;9.182;2023-02-23T09:00:27;10.20;25.00
3308;DHT22;1666;48.898;9.182;2023-02-23T09:02:59;10.20;24.50
3308;DHT22;1666;48.898;9.182;2023-02-23T09:05:31;10.30;23.40
3308;DHT22;1666;48.898;9.182;2023-02-23T09:08:01;10.30;20.90
3308;DHT22;1666;48.898;9.182;2023-02-23T09:10:31;10.40;21.00
3308;DHT22;1666;48.898;9.182;2023-02-23T09:13:01;10.50;20.70
3308;DHT22;1666;48.898;9.182;2023-02-23T09:15:31;10.80;20.30
3308;DHT22;1666;48.898;9.182;2023-02-23T09:18:04;10.80;18.20
3308;DHT22;1666;48.898;9.182;2023-02-23T09:20:34;10.80;18.00
3308;DHT22;1666;48.898;9.182;2023-02-23T09:23:04;10.80;16.00
3308;DHT22;1666;48.898;9.182;2023-02-23T09:25:38;10.80;16.60
3308;DHT22;1666;48.898;9.182;2023-02-23T09:28:10;10.90;15.90
3308;DHT22;1666;48.898;9.182;2023-02-23T09:30:41;11.10;15.80
3308;DHT22;1666;48.898;9.182;2023-02-23T09:33:14;11.20;15.70
3308;DHT22;1666;48.898;9.182;2023-02-23T09:35:44;11.20;13.20
3308;DHT22;1666;48.898;9.182;2023-02-23T09:38:13;11.30;12.60
3308;DHT22;1666;48.898;9.182;2023-02-23T09:40:45;11.30;11.90
3308;DHT22;1666;48.898;9.182;2023-02-23T09:43:20;11.50;11.60
3308;DHT22;1666;48.898;9.182;2023-02-23T09:45:54;11.80;9.80
3308;DHT22;1666;48.898;9.182;2023-02-23T09:48:28;11.90;5.80
3308;DHT22;1666;48.898;9.182;2023-02-23T09:50:59;11.90;6.70
3308;DHT22;1666;48.898;9.182;2023-02-23T09:53:33;12.10;4.50
3308;DHT22;1666;48.898;9.182;2023-02-23T09:56:09;11.90;5.80
3308;DHT22;1666;48.898;9.182;2023-02-23T09:58:40;12.00;5.50
3308;DHT22;1666;48.898;9.182;2023-02-23T10:01:40;12.30;1.90
3308;DHT22;1666;48.898;9.182;2023-02-23T10:04:18;12.40;1.00
3308;DHT22;1666;48.898;9.182;2023-02-23T10:06:53;12.60;1.00
3308;DHT22;1666;48.898;9.182;2023-02-23T10:09:45;12.70;1.00
3308;DHT22;1666;48.898;9.182;2023-02-23T10:12:24;12.80;1.00
3308;DHT22;1666;48.898;9.182;2023-02-23T10:15:05;12.80;1.00
3308;DHT22;1666;48.898;9.182;2023-02-23T10:17:44;12.30;1.00
3308;DHT22;1666;48.898;9.182;2023-02-23T10:20:25;12.70;1.00
3308;DHT22;1666;48.898;9.182;2023-02-23T10:23:01;13.00;1.00
3308;DHT22;1666;48.898;9.182;2023-02-23T10:25:35;13.10;1.00
3308;DHT22;1666;48.898;9.182;2023-02-23T10:28:10;13.20;1.00
3308;DHT22;1666;48.898;9.182;2023-02-23T10:30:41;12.70;1.00
3308;DHT22;1666;48.898;9.182;2023-02-23T10:33:14;12.70;1.00
3308;DHT22;1666;48.898;9.182;2023-02-23T10:35:49;12.80;1.00
3308;DHT22;1666;48.898;9.182;2023-02-23T10:38:38;12.80;1.00
3308;DHT22;1666;48.898;9.182;2023-02-23T10:41:09;12.80;1.00
3308;DHT22;1666;48.898;9.182;2023-02-23T10:43:41;13.10;1.00
3308;DHT22;1666;48.898;9.182;2023-02-23T10:46:18;13.40;1.00
3308;DHT22;1666;48.898;9.182;2023-02-23T10:48:51;13.50;1.00
3308;DHT22;1666;48.898;9.182;2023-02-23T10:51:29;13.50;1.00
3308;DHT22;1666;48.898;9.182;2023-02-23T10:54:39;12.90;1.00
3308;DHT22;1666;48.898;9.182;2023-02-23T10:57:22;13.20;1.00
3308;DHT22;1666;48.898;9.182;2023-02-23T11:00:07;13.30;1.00
3308;DHT22;1666;48.898;9.182;2023-02-23T11:02:38;13.50;1.00
3308;DHT22;1666;48.898;9.182;2023-02-23T11:05:30;13.60;1.00
3308;DHT22;1666;48.898;9.182;2023-02-23T11:08:25;13.40;1.00
3308;DHT22;1666;48.898;9.182;2023-02-23T11:11:19;13.40;1.00
3308;DHT22;1666;48.898;9.182;2023-02-23T11:13:51;13.30;1.00
3308;DHT22;1666;48.898;9.182;2023-02-23T11:16:22;13.30;1.00
3308;DHT22;1666;48.898;9.182;2023-02-23T11:18:55;13.00;1.00
3308;DHT22;1666;48.898;9.182;2023-02-23T11:21:27;13.20;1.00
3308;DHT22;1666;48.898;9.182;2023-02-23T11:24:03;13.10;1.00
3308;DHT22;1666;48.898;9.182;2023-02-23T11:26:39;13.30;1.00
3308;DHT22;1666;48.898;9.182;2023-02-23T11:29:14;13.30;1.00
3308;DHT22;1666;48.898;9.182;2023-02-23T11:31:49;13.30;1.00
3308;DHT22;1666;48.898;9.182;2023-02-23T11:34:27;13.30;1.00
3308;DHT22;1666;48.898;9.182;2023-02-23T11:37:01;13.30;1.00
3308;DHT22;1666;48.898;9.182;2023-02-23T11:39:31;13.50;1.00
3308;DHT22;1666;48.898;9.182;2023-02-23T11:42:19;13.40;1.00
3308;DHT22;1666;48.898;9.182;2023-02-23T11:45:00;13.10;1.00
3308;DHT22;1666;48.898;9.182;2023-02-23T11:47:31;13.00;1.00
3308;DHT22;1666;48.898;9.182;2023-02-23T11:50:02;12.90;1.00
3308;DHT22;1666;48.898;9.182;2023-02-23T11:52:33;12.70;1.00
3308;DHT22;1666;48.898;9.182;2023-02-23T11:55:05;12.80;1.00
3308;DHT22;1666;48.898;9.182;2023-02-23T11:57:38;12.80;1.00
3308;DHT22;1666;48.898;9.182;2023-02-23T12:00:11;12.80;1.00
3308;DHT22;1666;48.898;9.182;2023-02-23T12:02:48;12.80;1.00
3308;DHT22;1666;48.898;9.182;2023-02-23T12:05:23;12.90;1.00
3308;DHT22;1666;48.898;9.182;2023-02-23T12:07:57;12.90;1.00
3308;DHT22;1666;48.898;9.182;2023-02-23T12:10:32;13.00;1.00
3308;DHT22;1666;48.898;9.182;2023-02-23T12:13:23;13.00;1.00
3308;DHT22;1666;48.898;9.182;2023-02-23T12:15:57;13.10;1.00
3308;DHT22;1666;48.898;9.182;2023-02-23T12:18:39;13.00;1.00
3308;DHT22;1666;48.898;9.182;2023-02-23T12:21:30;13.10;1.00
3308;DHT22;1666;48.898;9.182;2023-02-23T12:24:14;13.10;1.00
3308;DHT22;1666;48.898;9.182;2023-02-23T12:26:50;13.40;1.00
3308;DHT22;1666;48.898;9.182;2023-02-23T12:29:30;13.60;1.00
3308;DHT22;1666;48.898;9.182;2023-02-23T12:32:01;13.60;1.00
3308;DHT22;1666;48.898;9.182;2023-02-23T12:34:38;13.60;1.00
3308;DHT22;1666;48.898;9.182;2023-02-23T12:37:13;13.50;1.00
3308;DHT22;1666;48.898;9.182;2023-02-23T12:39:48;13.40;1.00
3308;DHT22;1666;48.898;9.182;2023-02-23T12:42:25;13.60;1.00
3308;DHT22;1666;48.898;9.182;2023-02-23T12:45:03;13.60;1.00
3308;DHT22;1666;48.898;9.182;2023-02-23T12:47:36;13.40;1.00
3308;DHT22;1666;48.898;9.182;2023-02-23T12:50:10;13.50;1.00
3308;DHT22;1666;48.898;9.182;2023-02-23T12:52:44;13.50;1.00
3308;DHT22;1666;48.898;9.182;2023-02-23T12:55:27;13.30;1.00
3308;DHT22;1666;48.898;9.182;2023-02-23T12:58:05;13.30;1.00
3308;DHT22;1666;48.898;9.182;2023-02-23T13:00:44;13.40;1.00
3308;DHT22;1666;48.898;9.182;2023-02-23T13:03:40;13.30;1.00
3308;DHT22;1666;48.898;9.182;2023-02-23T13:06:19;13.30;1.00
3308;DHT22;1666;48.898;9.182;2023-02-23T13:08:57;13.20;1.00
3308;DHT22;1666;48.898;9.182;2023-02-23T13:11:45;13.30;1.00
3308;DHT22;1666;48.898;9.182;2023-02-23T13:14:20;13.20;1.00
3308;DHT22;1666;48.898;9.182;2023-02-23T13:16:55;13.20;1.00
3308;DHT22;1666;48.898;9.182;2023-02-23T13:19:31;13.30;1.00
3308;DHT22;1666;48.898;9.182;2023-02-23T13:22:18;13.20;1.00
3308;DHT22;1666;48.898;9.182;2023-02-23T13:24:54;13.20;1.00
3308;DHT22;1666;48.898;9.182;2023-02-23T13:27:29;13.20;1.00
3308;DHT22;1666;48.898;9.182;2023-02-23T13:30:01;13.20;1.00
3308;DHT22;1666;48.898;9.182;2023-02-23T13:32:34;13.10;1.00
3308;DHT22;1666;48.898;9.182;2023-02-23T13:35:07;13.10;1.00
3308;DHT22;1666;48.898;9.182;2023-02-23T13:37:43;13.00;1.00
3308;DHT22;1666;48.898;9.182;2023-02-23T13:40:22;13.00;1.00
3308;DHT22;1666;48.898;9.182;2023-02-23T13:43:00;13.00;1.00
3308;DHT22;1666;48.898;9.182;2023-02-23T13:45:47;13.00;1.00
3308;DHT22;1666;48.898;9.182;2023-02-23T13:48:26;13.00;1.00
3308;DHT22;1666;48.898;9.182;2023-02-23T13:51:03;13.10;1.00
3308;DHT22;1666;48.898;9.182;2023-02-23T13:53:40;13.10;1.00
3308;DHT22;1666;48.898;9.182;2023-02-23T13:56:15;13.00;1.00
3308;DHT22;1666;48.898;9.182;2023-02-23T13:58:47;13.10;1.00
3308;DHT22;1666;48.898;9.182;2023-02-23T14:01:21;13.10;1.00
3308;DHT22;1666;48.898;9.182;2023-02-23T14:03:59;13.10;1.00
3308;DHT22;1666;48.898;9.182;2023-02-23T14:06:31;13.10;1.00
3308;DHT22;1666;48.898;9.182;2023-02-23T14:09:07;13.10;1.00
3308;DHT22;1666;48.898;9.182;2023-02-23T14:11:43;12.90;1.00
3308;DHT22;1666;48.898;9.182;2023-02-23T14:14:39;12.90;1.00
3308;DHT22;1666;48.898;9.182;2023-02-23T14:17:38;13.00;1.00
3308;DHT22;1666;48.898;9.182;2023-02-23T14:20:20;13.10;1.00
3308;DHT22;1666;48.898;9.182;2023-02-23T14:23:27;13.00;1.00
3308;DHT22;1666;48.898;9.182;2023-02-23T14:26:15;13.00;1.00
3308;DHT22;1666;48.898;9.182;2023-02-23T14:28:47;13.00;1.00
3308;DHT22;1666;48.898;9.182;2023-02-23T14:31:36;13.10;1.00
3308;DHT22;1666;48.898;9.182;2023-02-23T14:34:08;12.90;1.00
3308;DHT22;1666;48.898;9.182;2023-02-23T14:36:44;12.70;1.00
3308;DHT22;1666;48.898;9.182;2023-02-23T14:39:22;12.80;1.00
3308;DHT22;1666;48.898;9.182;2023-02-23T14:41:54;12.80;1.00
3308;DHT22;1666;48.898;9.182;2023-02-23T14:44:27;12.80;1.00
3308;DHT22;1666;48.898;9.182;2023-02-23T14:47:01;12.80;1.00
3308;DHT22;1666;48.898;9.182;2023-02-23T14:49:32;12.70;1.00
3308;DHT22;1666;48.898;9.182;2023-02-23T14:52:13;12.70;1.00
3308;DHT22;1666;48.898;9.182;2023-02-23T14:54:46;12.70;1.00
3308;DHT22;1666;48.898;9.182;2023-02-23T14:57:19;12.70;1.00
3308;DHT22;1666;48.898;9.182;2023-02-23T14:59:57;12.70;1.00
3308;DHT22;1666;48.898;9.182;2023-02-23T15:02:28;12.60;1.00
3308;DHT22;1666;48.898;9.182;2023-02-23T15:05:13;12.60;1.00
3308;DHT22;1666;48.898;9.182;2023-02-23T15:07:46;12.70;1.00
3308;DHT22;1666;48.898;9.182;2023-02-23T15:10:21;12.70;1.00
3308;DHT22;1666;48.898;9.182;2023-02-23T15:12:53;12.70;1.00
3308;DHT22;1666;48.898;9.182;2023-02-23T15:15:24;12.60;1.00
3308;DHT22;1666;48.898;9.182;2023-02-23T15:17:58;12.60;1.00
3308;DHT22;1666;48.898;9.182;2023-02-23T15:20:32;12.60;1.00
3308;DHT22;1666;48.898;9.182;2023-02-23T15:23:05;12.70;1.00
3308;DHT22;1666;48.898;9.182;2023-02-23T15:25:38;12.60;1.00
3308;DHT22;1666;48.898;9.182;2023-02-23T15:28:21;12.50;1.00
3308;DHT22;1666;48.898;9.182;2023-02-23T15:30:53;12.40;1.00
3308;DHT22;1666;48.898;9.182;2023-02-23T15:33:23;12.40;1.00
3308;DHT22;1666;48.898;9.182;2023-02-23T15:36:00;12.40;1.00
3308;DHT22;1666;48.898;9.182;2023-02-23T15:38:40;12.40;1.00
3308;DHT22;1666;48.898;9.182;2023-02-23T15:41:16;12.30;1.00
3308;DHT22;1666;48.898;9.182;2023-02-23T15:43:49;12.00;1.00
3308;DHT22;1666;48.898;9.182;2023-02-23T15:46:22;12.00;1.00
3308;DHT22;1666;48.898;9.182;2023-02-23T15:48:54;11.90;1.00
3308;DHT22;1666;48.898;9.182;2023-02-23T15:51:33;11.70;1.00
3308;DHT22;1666;48.898;9.182;2023-02-23T15:54:15;11.70;1.00
3308;DHT22;1666;48.898;9.182;2023-02-23T15:56:47;11.60;1.70
3308;DHT22;1666;48.898;9.182;2023-02-23T15:59:24;11.50;3.50
3308;DHT22;1666;48.898;9.182;2023-02-23T16:01:56;11.60;6.60
3308;DHT22;1666;48.898;9.182;2023-02-23T16:04:30;11.50;7.40
3308;DHT22;1666;48.898;9.182;2023-02-23T16:07:12;11.50;8.80
3308;DHT22;1666;48.898;9.182;2023-02-23T16:09:51;11.40;6.30
3308;DHT22;1666;48.898;9.182;2023-02-23T16:12:23;11.40;9.90
3308;DHT22;1666;48.898;9.182;2023-02-23T16:14:57;11.40;9.40
3308;DHT22;1666;48.898;9.182;2023-02-23T16:17:31;11.40;8.80
3308;DHT22;1666;48.898;9.182;2023-02-23T16:20:12;11.50;10.00
3308;DHT22;1666;48.898;9.182;2023-02-23T16:22:45;11.40;8.80
3308;DHT22;1666;48.898;9.182;2023-02-23T16:25:24;11.40;9.50
3308;DHT22;1666;48.898;9.182;2023-02-23T16:27:58;11.40;8.70
3308;DHT22;1666;48.898;9.182;2023-02-23T16:30:37;11.50;9.40
3308;DHT22;1666;48.898;9.182;2023-02-23T16:33:13;11.50;9.70
3308;DHT22;1666;48.898;9.182;2023-02-23T16:35:48;11.50;8.80
3308;DHT22;1666;48.898;9.182;2023-02-23T16:38:23;11.50;8.80
3308;DHT22;1666;48.898;9.182;2023-02-23T16:40:56;11.50;9.30
3308;DHT22;1666;48.898;9.182;2023-02-23T16:43:26;11.50;9.80
3308;DHT22;1666;48.898;9.182;2023-02-23T16:45:57;11.40;10.80
3308;DHT22;1666;48.898;9.182;2023-02-23T16:48:27;11.30;12.40
3308;DHT22;1666;48.898;9.182;2023-02-23T16:50:57;11.40;13.70
3308;DHT22;1666;48.898;9.182;2023-02-23T16:53:27;11.30;13.50
3308;DHT22;1666;48.898;9.182;2023-02-23T16:55:59;11.30;15.00
3308;DHT22;1666;48.898;9.182;2023-02-23T16:58:38;11.20;15.80
3308;DHT22;1666;48.898;9.182;2023-02-23T17:01:11;11.20;17.10
3308;DHT22;1666;48.898;9.182;2023-02-23T17:03:44;11.20;18.40
3308;DHT22;1666;48.898;9.182;2023-02-23T17:06:19;11.10;19.30
3308;DHT22;1666;48.898;9.182;2023-02-23T17:08:49;11.10;19.80
3308;DHT22;1666;48.898;9.182;2023-02-23T17:11:42;11.10;20.40
3308;DHT22;1666;48.898;9.182;2023-02-23T17:14:20;11.10;20.80
3308;DHT22;1666;48.898;9.182;2023-02-23T17:16:51;11.00;20.70
3308;DHT22;1666;48.898;9.182;2023-02-23T17:19:22;11.00;20.50
3308;DHT22;1666;48.898;9.182;2023-02-23T17:21:52;11.00;20.50